sensor_id;sensor_type;location;lat;lon;timestamp;P1;durP1;ratioP1;P2;durP2;ratioP2
45490;SDS011;31237;45.586;13.782;2023-06-10T00:01:54;8.88;;;6.43;;
45490;SDS011;31237;45.586;13.782;2023-06-10T00:04:23;8.48;;;6.25;;
45490;SDS011;31237;45.586;13.782;2023-06-10T00:06:48;6.78;;;5.80;;
45490;SDS011;31237;45.586;13.782;2023-06-10T00:09:14;8.38;;;6.18;;
45490;SDS011;31237;45.586;13.782;2023-06-10T00:11:40;8.13;;;6.00;;
45490;SDS011;31237;45.586;13.782;2023-06-10T00:14:07;7.05;;;5.28;;
45490;SDS011;31237;45.586;13.782;2023-06-10T00:16:33;8.60;;;6.13;;
45490;SDS011;31237;45.586;13.782;2023-06-10T00:19:01;7.97;;;6.13;;
45490;SDS011;31237;45.586;13.782;2023-06-10T00:21:29;7.80;;;6.05;;
45490;SDS011;31237;45.586;13.782;2023-06-10T00:24:06;8.95;;;6.40;;
45490;SDS011;31237;45.586;13.782;2023-06-10T00:26:36;8.60;;;5.68;;
45490;SDS011;31237;45.586;13.782;2023-06-10T00:29:06;7.35;;;5.63;;
45490;SDS011;31237;45.586;13.782;2023-06-10T00:31:36;8.35;;;6.03;;
45490;SDS011;31237;45.586;13.782;2023-06-10T00:34:02;7.75;;;5.70;;
45490;SDS011;31237;45.586;13.782;2023-06-10T00:36:28;9.02;;;6.68;;
45490;SDS011;31237;45.586;13.782;2023-06-10T00:38:55;7.68;;;5.78;;
45490;SDS011;31237;45.586;13.782;2023-06-10T00:41:22;7.82;;;5.95;;
45490;SDS011;31237;45.586;13.782;2023-06-10T00:43:48;6.80;;;5.65;;
45490;SDS011;31237;45.586;13.782;2023-06-10T00:46:13;7.32;;;5.72;;
45490;SDS011;31237;45.586;13.782;2023-06-10T00:48:40;6.90;;;5.70;;
45490;SDS011;31237;45.586;13.782;2023-06-10T00:51:07;7.15;;;5.50;;
45490;SDS011;31237;45.586;13.782;2023-06-10T00:53:34;10.48;;;6.10;;
45490;SDS011;31237;45.586;13.782;2023-06-10T00:56:02;7.43;;;5.88;;
45490;SDS011;31237;45.586;13.782;2023-06-10T00:58:28;6.93;;;5.45;;
45490;SDS011;31237;45.586;13.782;2023-06-10T01:00:54;8.05;;;5.32;;
45490;SDS011;31237;45.586;13.782;2023-06-10T01:03:20;7.57;;;5.32;;
45490;SDS011;31237;45.586;13.782;2023-06-10T01:08:35;6.90;;;5.00;;
45490;SDS011;31237;45.586;13.782;2023-06-10T01:11:13;7.10;;;5.03;;
45490;SDS011;31237;45.586;13.782;2023-06-10T01:13:44;6.00;;;5.00;;
45490;SDS011;31237;45.586;13.782;2023-06-10T01:16:11;7.43;;;5.30;;
45490;SDS011;31237;45.586;13.782;2023-06-10T01:18:37;7.20;;;5.25;;
45490;SDS011;31237;45.586;13.782;2023-06-10T01:21:05;6.07;;;4.88;;
45490;SDS011;31237;45.586;13.782;2023-06-10T01:23:32;5.78;;;4.57;;
45490;SDS011;31237;45.586;13.782;2023-06-10T01:26:00;7.60;;;5.15;;
45490;SDS011;31237;45.586;13.782;2023-06-10T01:34:14;6.75;;;4.75;;
45490;SDS011;31237;45.586;13.782;2023-06-10T01:36:44;7.18;;;5.13;;
45490;SDS011;31237;45.586;13.782;2023-06-10T01:39:12;6.03;;;4.47;;
45490;SDS011;31237;45.586;13.782;2023-06-10T01:41:41;5.85;;;4.35;;
45490;SDS011;31237;45.586;13.782;2023-06-10T01:44:07;7.57;;;4.88;;
45490;SDS011;31237;45.586;13.782;2023-06-10T01:46:33;5.95;;;4.60;;
45490;SDS011;31237;45.586;13.782;2023-06-10T01:48:59;5.85;;;4.65;;
45490;SDS011;31237;45.586;13.782;2023-06-10T01:51:25;6.38;;;4.80;;
45490;SDS011;31237;45.586;13.782;2023-06-10T01:53:51;6.53;;;4.70;;
45490;SDS011;31237;45.586;13.782;2023-06-10T01:56:16;5.88;;;4.43;;
45490;SDS011;31237;45.586;13.782;2023-06-10T01:58:44;7.10;;;5.35;;
45490;SDS011;31237;45.586;13.782;2023-06-10T02:01:11;6.15;;;4.85;;
45490;SDS011;31237;45.586;13.782;2023-06-10T02:03:37;6.43;;;5.20;;
45490;SDS011;31237;45.586;13.782;2023-06-10T02:06:03;6.88;;;5.50;;
45490;SDS011;31237;45.586;13.782;2023-06-10T02:08:28;6.72;;;5.32;;
45490;SDS011;31237;45.586;13.782;2023-06-10T02:10:54;6.65;;;5.43;;
45490;SDS011;31237;45.586;13.782;2023-06-10T02:13:20;7.18;;;5.32;;
45490;SDS011;31237;45.586;13.782;2023-06-10T02:15:46;7.05;;;5.85;;
45490;SDS011;31237;45.586;13.782;2023-06-10T02:18:11;7.35;;;5.90;;
45490;SDS011;31237;45.586;13.782;2023-06-10T02:20:37;7.30;;;5.20;;
45490;SDS011;31237;45.586;13.782;2023-06-10T02:23:03;7.20;;;5.55;;
45490;SDS011;31237;45.586;13.782;2023-06-10T02:25:29;6.57;;;5.15;;
45490;SDS011;31237;45.586;13.782;2023-06-10T02:27:54;6.50;;;4.85;;
45490;SDS011;31237;45.586;13.782;2023-06-10T02:30:20;6.75;;;4.85;;
45490;SDS011;31237;45.586;13.782;2023-06-10T02:32:46;5.93;;;4.30;;
45490;SDS011;31237;45.586;13.782;2023-06-10T02:35:12;8.48;;;5.45;;
45490;SDS011;31237;45.586;13.782;2023-06-10T02:37:39;6.28;;;5.07;;
45490;SDS011;31237;45.586;13.782;2023-06-10T02:40:05;6.60;;;4.82;;
45490;SDS011;31237;45.586;13.782;2023-06-10T02:42:32;6.40;;;4.95;;
45490;SDS011;31237;45.586;13.782;2023-06-10T02:44:57;6.30;;;4.90;;
45490;SDS011;31237;45.586;13.782;2023-06-10T02:47:23;7.60;;;5.57;;
45490;SDS011;31237;45.586;13.782;2023-06-10T02:49:49;7.50;;;5.70;;
45490;SDS011;31237;45.586;13.782;2023-06-10T02:52:15;7.43;;;5.43;;
45490;SDS011;31237;45.586;13.782;2023-06-10T02:54:40;7.35;;;5.20;;
45490;SDS011;31237;45.586;13.782;2023-06-10T02:57:06;6.53;;;5.20;;
45490;SDS011;31237;45.586;13.782;2023-06-10T02:59:32;7.88;;;5.07;;
45490;SDS011;31237;45.586;13.782;2023-06-10T03:01:58;7.40;;;5.35;;
45490;SDS011;31237;45.586;13.782;2023-06-10T03:04:26;7.10;;;5.35;;
45490;SDS011;31237;45.586;13.782;2023-06-10T03:06:54;9.05;;;5.57;;
45490;SDS011;31237;45.586;13.782;2023-06-10T03:09:20;9.20;;;5.70;;
45490;SDS011;31237;45.586;13.782;2023-06-10T03:11:46;7.20;;;5.60;;
45490;SDS011;31237;45.586;13.782;2023-06-10T03:14:11;8.82;;;6.10;;
45490;SDS011;31237;45.586;13.782;2023-06-10T03:16:37;8.00;;;6.13;;
45490;SDS011;31237;45.586;13.782;2023-06-10T03:19:07;7.78;;;6.22;;
45490;SDS011;31237;45.586;13.782;2023-06-10T03:21:36;9.18;;;6.22;;
45490;SDS011;31237;45.586;13.782;2023-06-10T03:24:02;8.88;;;6.53;;
45490;SDS011;31237;45.586;13.782;2023-06-10T03:26:29;8.43;;;6.50;;
45490;SDS011;31237;45.586;13.782;2023-06-10T03:28:54;10.52;;;8.07;;
45490;SDS011;31237;45.586;13.782;2023-06-10T03:31:20;8.93;;;7.38;;
45490;SDS011;31237;45.586;13.782;2023-06-10T03:33:46;8.82;;;6.60;;
45490;SDS011;31237;45.586;13.782;2023-06-10T03:36:11;9.00;;;6.63;;
45490;SDS011;31237;45.586;13.782;2023-06-10T03:38:37;9.40;;;7.15;;
45490;SDS011;31237;45.586;13.782;2023-06-10T03:41:03;7.35;;;6.18;;
45490;SDS011;31237;45.586;13.782;2023-06-10T03:43:29;9.63;;;6.70;;
45490;SDS011;31237;45.586;13.782;2023-06-10T03:45:56;7.22;;;6.50;;
45490;SDS011;31237;45.586;13.782;2023-06-10T03:48:22;7.55;;;6.90;;
45490;SDS011;31237;45.586;13.782;2023-06-10T03:50:47;8.20;;;7.35;;
45490;SDS011;31237;45.586;13.782;2023-06-10T03:53:15;6.55;;;5.68;;
45490;SDS011;31237;45.586;13.782;2023-06-10T03:55:42;7.72;;;5.07;;
45490;SDS011;31237;45.586;13.782;2023-06-10T03:58:07;6.88;;;5.10;;
45490;SDS011;31237;45.586;13.782;2023-06-10T04:00:33;5.97;;;4.55;;
45490;SDS011;31237;45.586;13.782;2023-06-10T04:03:06;6.30;;;4.90;;
45490;SDS011;31237;45.586;13.782;2023-06-10T04:05:39;6.10;;;4.90;;
45490;SDS011;31237;45.586;13.782;2023-06-10T04:08:05;5.60;;;4.30;;
45490;SDS011;31237;45.586;13.782;2023-06-10T04:10:32;5.95;;;4.35;;
45490;SDS011;31237;45.586;13.782;2023-06-10T04:12:58;8.93;;;4.88;;
45490;SDS011;31237;45.586;13.782;2023-06-10T04:15:24;7.72;;;5.18;;
45490;SDS011;31237;45.586;13.782;2023-06-10T04:17:50;7.05;;;6.25;;
45490;SDS011;31237;45.586;13.782;2023-06-10T04:20:16;6.78;;;6.07;;
45490;SDS011;31237;45.586;13.782;2023-06-10T04:22:42;7.30;;;4.90;;
45490;SDS011;31237;45.586;13.782;2023-06-10T04:25:08;5.97;;;4.70;;
45490;SDS011;31237;45.586;13.782;2023-06-10T04:27:34;6.20;;;4.90;;
45490;SDS011;31237;45.586;13.782;2023-06-10T04:30:00;5.88;;;4.63;;
45490;SDS011;31237;45.586;13.782;2023-06-10T04:32:28;7.75;;;5.40;;
45490;SDS011;31237;45.586;13.782;2023-06-10T04:34:54;7.45;;;5.20;;
45490;SDS011;31237;45.586;13.782;2023-06-10T04:37:20;6.40;;;4.80;;
45490;SDS011;31237;45.586;13.782;2023-06-10T04:39:45;6.10;;;4.72;;
45490;SDS011;31237;45.586;13.782;2023-06-10T04:42:11;5.70;;;4.38;;
45490;SDS011;31237;45.586;13.782;2023-06-10T04:44:37;5.63;;;4.45;;
45490;SDS011;31237;45.586;13.782;2023-06-10T04:47:04;6.18;;;4.95;;
45490;SDS011;31237;45.586;13.782;2023-06-10T04:49:29;5.47;;;4.30;;
45490;SDS011;31237;45.586;13.782;2023-06-10T04:51:56;5.13;;;4.00;;
45490;SDS011;31237;45.586;13.782;2023-06-10T04:54:21;5.30;;;4.00;;
45490;SDS011;31237;45.586;13.782;2023-06-10T04:56:47;7.18;;;5.70;;
45490;SDS011;31237;45.586;13.782;2023-06-10T04:59:13;7.32;;;5.72;;
45490;SDS011;31237;45.586;13.782;2023-06-10T05:01:39;7.70;;;4.60;;
45490;SDS011;31237;45.586;13.782;2023-06-10T05:04:05;5.20;;;4.30;;
45490;SDS011;31237;45.586;13.782;2023-06-10T05:06:31;5.90;;;4.20;;
45490;SDS011;31237;45.586;13.782;2023-06-10T05:08:56;6.18;;;4.30;;
45490;SDS011;31237;45.586;13.782;2023-06-10T05:11:22;5.63;;;4.65;;
45490;SDS011;31237;45.586;13.782;2023-06-10T05:13:47;6.47;;;4.90;;
45490;SDS011;31237;45.586;13.782;2023-06-10T05:16:14;5.97;;;3.90;;
45490;SDS011;31237;45.586;13.782;2023-06-10T05:18:40;7.50;;;4.55;;
45490;SDS011;31237;45.586;13.782;2023-06-10T05:21:06;5.40;;;4.53;;
45490;SDS011;31237;45.586;13.782;2023-06-10T05:23:32;6.60;;;4.55;;
45490;SDS011;31237;45.586;13.782;2023-06-10T05:25:58;6.55;;;4.57;;
45490;SDS011;31237;45.586;13.782;2023-06-10T05:28:24;7.68;;;4.45;;
45490;SDS011;31237;45.586;13.782;2023-06-10T05:30:50;5.28;;;4.68;;
45490;SDS011;31237;45.586;13.782;2023-06-10T05:33:16;5.25;;;4.22;;
45490;SDS011;31237;45.586;13.782;2023-06-10T05:35:42;6.13;;;4.90;;
45490;SDS011;31237;45.586;13.782;2023-06-10T05:38:08;7.57;;;4.68;;
45490;SDS011;31237;45.586;13.782;2023-06-10T05:40:33;5.47;;;4.20;;
45490;SDS011;31237;45.586;13.782;2023-06-10T05:42:59;5.35;;;4.28;;
45490;SDS011;31237;45.586;13.782;2023-06-10T05:45:25;5.38;;;4.32;;
45490;SDS011;31237;45.586;13.782;2023-06-10T05:47:50;6.65;;;4.68;;
45490;SDS011;31237;45.586;13.782;2023-06-10T05:50:16;5.80;;;4.10;;
45490;SDS011;31237;45.586;13.782;2023-06-10T05:52:42;5.43;;;4.32;;
45490;SDS011;31237;45.586;13.782;2023-06-10T05:55:08;6.57;;;4.10;;
45490;SDS011;31237;45.586;13.782;2023-06-10T05:57:34;5.18;;;3.95;;
45490;SDS011;31237;45.586;13.782;2023-06-10T06:00:00;6.35;;;4.50;;
45490;SDS011;31237;45.586;13.782;2023-06-10T06:02:25;5.43;;;4.10;;
45490;SDS011;31237;45.586;13.782;2023-06-10T06:04:51;5.90;;;4.43;;
45490;SDS011;31237;45.586;13.782;2023-06-10T06:07:17;5.53;;;4.78;;
45490;SDS011;31237;45.586;13.782;2023-06-10T06:09:45;7.38;;;4.35;;
45490;SDS011;31237;45.586;13.782;2023-06-10T06:12:11;6.70;;;4.60;;
45490;SDS011;31237;45.586;13.782;2023-06-10T06:14:37;7.90;;;5.13;;
45490;SDS011;31237;45.586;13.782;2023-06-10T06:17:06;5.53;;;4.60;;
45490;SDS011;31237;45.586;13.782;2023-06-10T06:19:33;6.40;;;4.95;;
45490;SDS011;31237;45.586;13.782;2023-06-10T06:21:59;6.15;;;4.90;;
45490;SDS011;31237;45.586;13.782;2023-06-10T06:24:24;7.70;;;5.47;;
45490;SDS011;31237;45.586;13.782;2023-06-10T06:26:50;6.47;;;5.22;;
45490;SDS011;31237;45.586;13.782;2023-06-10T06:29:16;6.65;;;4.88;;
45490;SDS011;31237;45.586;13.782;2023-06-10T06:31:41;6.38;;;4.90;;
45490;SDS011;31237;45.586;13.782;2023-06-10T06:34:07;6.78;;;4.85;;
45490;SDS011;31237;45.586;13.782;2023-06-10T06:36:33;7.55;;;4.70;;
45490;SDS011;31237;45.586;13.782;2023-06-10T06:38:58;6.90;;;5.28;;
45490;SDS011;31237;45.586;13.782;2023-06-10T06:41:27;5.88;;;4.53;;
45490;SDS011;31237;45.586;13.782;2023-06-10T06:43:53;5.75;;;4.45;;
45490;SDS011;31237;45.586;13.782;2023-06-10T06:46:19;5.47;;;4.20;;
45490;SDS011;31237;45.586;13.782;2023-06-10T06:48:46;5.82;;;4.60;;
45490;SDS011;31237;45.586;13.782;2023-06-10T06:51:12;8.15;;;4.90;;
45490;SDS011;31237;45.586;13.782;2023-06-10T06:53:38;6.28;;;4.35;;
45490;SDS011;31237;45.586;13.782;2023-06-10T06:56:09;8.57;;;4.65;;
45490;SDS011;31237;45.586;13.782;2023-06-10T06:58:35;7.40;;;5.30;;
45490;SDS011;31237;45.586;13.782;2023-06-10T07:01:01;5.90;;;4.65;;
45490;SDS011;31237;45.586;13.782;2023-06-10T07:03:27;8.75;;;5.13;;
45490;SDS011;31237;45.586;13.782;2023-06-10T07:05:52;6.40;;;4.72;;
45490;SDS011;31237;45.586;13.782;2023-06-10T07:08:18;6.97;;;4.93;;
45490;SDS011;31237;45.586;13.782;2023-06-10T07:10:44;6.15;;;5.13;;
45490;SDS011;31237;45.586;13.782;2023-06-10T07:13:09;5.85;;;4.60;;
45490;SDS011;31237;45.586;13.782;2023-06-10T07:15:35;6.70;;;5.03;;
45490;SDS011;31237;45.586;13.782;2023-06-10T07:18:01;6.90;;;4.97;;
45490;SDS011;31237;45.586;13.782;2023-06-10T07:20:26;8.77;;;4.80;;
45490;SDS011;31237;45.586;13.782;2023-06-10T07:22:52;8.10;;;5.47;;
45490;SDS011;31237;45.586;13.782;2023-06-10T07:25:18;6.70;;;5.72;;
45490;SDS011;31237;45.586;13.782;2023-06-10T07:27:44;6.68;;;5.57;;
45490;SDS011;31237;45.586;13.782;2023-06-10T07:30:10;9.70;;;6.75;;
45490;SDS011;31237;45.586;13.782;2023-06-10T07:32:36;7.47;;;5.82;;
45490;SDS011;31237;45.586;13.782;2023-06-10T07:35:02;7.13;;;5.70;;
45490;SDS011;31237;45.586;13.782;2023-06-10T07:37:27;5.78;;;4.90;;
45490;SDS011;31237;45.586;13.782;2023-06-10T07:39:53;6.88;;;4.75;;
45490;SDS011;31237;45.586;13.782;2023-06-10T07:42:19;6.53;;;5.05;;
45490;SDS011;31237;45.586;13.782;2023-06-10T07:44:45;5.97;;;3.60;;
45490;SDS011;31237;45.586;13.782;2023-06-10T07:47:10;4.03;;;3.38;;
45490;SDS011;31237;45.586;13.782;2023-06-10T07:49:36;5.60;;;3.90;;
45490;SDS011;31237;45.586;13.782;2023-06-10T07:52:02;4.45;;;3.50;;
45490;SDS011;31237;45.586;13.782;2023-06-10T07:54:27;7.32;;;5.20;;
45490;SDS011;31237;45.586;13.782;2023-06-10T07:56:53;6.80;;;4.35;;
45490;SDS011;31237;45.586;13.782;2023-06-10T07:59:19;5.95;;;4.38;;
45490;SDS011;31237;45.586;13.782;2023-06-10T08:01:44;6.65;;;5.03;;
45490;SDS011;31237;45.586;13.782;2023-06-10T08:04:11;7.30;;;5.53;;
45490;SDS011;31237;45.586;13.782;2023-06-10T08:06:36;6.60;;;4.97;;
45490;SDS011;31237;45.586;13.782;2023-06-10T08:09:02;5.32;;;4.15;;
45490;SDS011;31237;45.586;13.782;2023-06-10T08:11:29;6.22;;;4.78;;
45490;SDS011;31237;45.586;13.782;2023-06-10T08:13:55;5.93;;;4.38;;
45490;SDS011;31237;45.586;13.782;2023-06-10T08:16:20;5.50;;;4.38;;
45490;SDS011;31237;45.586;13.782;2023-06-10T08:18:46;5.95;;;4.57;;
45490;SDS011;31237;45.586;13.782;2023-06-10T08:21:12;7.28;;;4.70;;
45490;SDS011;31237;45.586;13.782;2023-06-10T08:23:37;5.75;;;4.68;;
45490;SDS011;31237;45.586;13.782;2023-06-10T08:26:04;5.07;;;4.57;;
45490;SDS011;31237;45.586;13.782;2023-06-10T08:28:29;6.70;;;4.95;;
45490;SDS011;31237;45.586;13.782;2023-06-10T08:30:55;7.22;;;5.18;;
45490;SDS011;31237;45.586;13.782;2023-06-10T08:33:21;6.28;;;5.13;;
45490;SDS011;31237;45.586;13.782;2023-06-10T08:35:46;8.32;;;5.07;;
45490;SDS011;31237;45.586;13.782;2023-06-10T08:38:12;5.88;;;4.82;;
45490;SDS011;31237;45.586;13.782;2023-06-10T08:40:38;6.13;;;5.10;;
45490;SDS011;31237;45.586;13.782;2023-06-10T08:43:08;6.20;;;4.97;;
45490;SDS011;31237;45.586;13.782;2023-06-10T08:45:52;7.53;;;4.53;;
45490;SDS011;31237;45.586;13.782;2023-06-10T08:48:25;7.10;;;4.70;;
45490;SDS011;31237;45.586;13.782;2023-06-10T08:50:55;6.38;;;4.72;;
45490;SDS011;31237;45.586;13.782;2023-06-10T08:53:22;6.18;;;5.13;;
45490;SDS011;31237;45.586;13.782;2023-06-10T08:55:50;6.22;;;4.68;;
45490;SDS011;31237;45.586;13.782;2023-06-10T08:58:17;6.00;;;5.00;;
45490;SDS011;31237;45.586;13.782;2023-06-10T09:00:44;7.10;;;5.57;;
45490;SDS011;31237;45.586;13.782;2023-06-10T09:03:10;7.35;;;5.68;;
45490;SDS011;31237;45.586;13.782;2023-06-10T09:05:36;6.18;;;5.10;;
45490;SDS011;31237;45.586;13.782;2023-06-10T09:08:03;8.10;;;5.50;;
45490;SDS011;31237;45.586;13.782;2023-06-10T09:10:32;7.00;;;5.10;;
45490;SDS011;31237;45.586;13.782;2023-06-10T09:14:18;6.93;;;5.78;;
45490;SDS011;31237;45.586;13.782;2023-06-10T09:16:44;6.90;;;5.50;;
45490;SDS011;31237;45.586;13.782;2023-06-10T09:19:11;5.90;;;4.82;;
45490;SDS011;31237;45.586;13.782;2023-06-10T09:21:38;7.25;;;6.03;;
45490;SDS011;31237;45.586;13.782;2023-06-10T09:24:03;6.40;;;5.00;;
45490;SDS011;31237;45.586;13.782;2023-06-10T09:26:30;7.38;;;5.22;;
45490;SDS011;31237;45.586;13.782;2023-06-10T09:29:03;6.68;;;4.72;;
45490;SDS011;31237;45.586;13.782;2023-06-10T09:31:30;6.20;;;4.55;;
45490;SDS011;31237;45.586;13.782;2023-06-10T09:34:06;7.03;;;4.57;;
45490;SDS011;31237;45.586;13.782;2023-06-10T09:36:33;6.50;;;4.25;;
45490;SDS011;31237;45.586;13.782;2023-06-10T09:39:00;27.65;;;7.18;;
45490;SDS011;31237;45.586;13.782;2023-06-10T09:41:35;6.38;;;4.90;;
45490;SDS011;31237;45.586;13.782;2023-06-10T09:44:15;7.00;;;4.45;;
45490;SDS011;31237;45.586;13.782;2023-06-10T09:46:45;5.70;;;4.28;;
45490;SDS011;31237;45.586;13.782;2023-06-10T09:49:12;5.78;;;4.75;;
45490;SDS011;31237;45.586;13.782;2023-06-10T09:52:00;8.18;;;5.10;;
45490;SDS011;31237;45.586;13.782;2023-06-10T09:54:24;7.40;;;4.95;;
45490;SDS011;31237;45.586;13.782;2023-06-10T09:56:56;9.68;;;5.88;;
45490;SDS011;31237;45.586;13.782;2023-06-10T09:59:28;7.88;;;4.88;;
45490;SDS011;31237;45.586;13.782;2023-06-10T10:01:57;7.23;;;5.00;;
45490;SDS011;31237;45.586;13.782;2023-06-10T10:04:26;19.15;;;6.47;;
45490;SDS011;31237;45.586;13.782;2023-06-10T10:06:53;8.65;;;6.05;;
45490;SDS011;31237;45.586;13.782;2023-06-10T10:09:19;6.32;;;4.65;;
45490;SDS011;31237;45.586;13.782;2023-06-10T10:11:44;7.72;;;5.47;;
45490;SDS011;31237;45.586;13.782;2023-06-10T10:14:12;6.75;;;4.82;;
45490;SDS011;31237;45.586;13.782;2023-06-10T10:16:41;17.75;;;6.07;;
45490;SDS011;31237;45.586;13.782;2023-06-10T10:19:10;11.27;;;5.07;;
45490;SDS011;31237;45.586;13.782;2023-06-10T10:22:01;7.22;;;4.95;;
45490;SDS011;31237;45.586;13.782;2023-06-10T10:24:36;7.78;;;4.20;;
45490;SDS011;31237;45.586;13.782;2023-06-10T10:27:18;5.93;;;4.55;;
45490;SDS011;31237;45.586;13.782;2023-06-10T10:29:52;5.97;;;4.30;;
45490;SDS011;31237;45.586;13.782;2023-06-10T10:32:18;7.38;;;4.80;;
45490;SDS011;31237;45.586;13.782;2023-06-10T10:34:50;5.53;;;4.50;;
45490;SDS011;31237;45.586;13.782;2023-06-10T10:37:27;5.95;;;4.57;;
45490;SDS011;31237;45.586;13.782;2023-06-10T10:39:53;6.30;;;4.63;;
45490;SDS011;31237;45.586;13.782;2023-06-10T10:42:20;5.43;;;4.43;;
45490;SDS011;31237;45.586;13.782;2023-06-10T10:44:46;6.15;;;4.68;;
45490;SDS011;31237;45.586;13.782;2023-06-10T10:47:14;5.07;;;4.22;;
45490;SDS011;31237;45.586;13.782;2023-06-10T10:49:46;5.80;;;4.63;;
45490;SDS011;31237;45.586;13.782;2023-06-10T10:52:16;6.18;;;5.35;;
45490;SDS011;31237;45.586;13.782;2023-06-10T10:54:45;6.50;;;5.22;;
45490;SDS011;31237;45.586;13.782;2023-06-10T10:59:59;6.05;;;5.40;;
45490;SDS011;31237;45.586;13.782;2023-06-10T11:05:10;7.83;;;5.10;;
45490;SDS011;31237;45.586;13.782;2023-06-10T11:07:51;6.57;;;5.03;;
45490;SDS011;31237;45.586;13.782;2023-06-10T11:10:29;5.43;;;4.20;;
45490;SDS011;31237;45.586;13.782;2023-06-10T11:12:59;5.00;;;4.15;;
45490;SDS011;31237;45.586;13.782;2023-06-10T11:15:28;5.68;;;4.20;;
45490;SDS011;31237;45.586;13.782;2023-06-10T11:18:11;5.05;;;3.95;;
45490;SDS011;31237;45.586;13.782;2023-06-10T11:20:43;5.85;;;4.32;;
45490;SDS011;31237;45.586;13.782;2023-06-10T11:31:23;6.70;;;4.93;;
45490;SDS011;31237;45.586;13.782;2023-06-10T11:33:54;6.13;;;5.03;;
45490;SDS011;31237;45.586;13.782;2023-06-10T11:36:28;6.82;;;5.43;;
45490;SDS011;31237;45.586;13.782;2023-06-10T11:38:58;6.57;;;5.82;;
45490;SDS011;31237;45.586;13.782;2023-06-10T11:41:25;10.05;;;6.25;;
45490;SDS011;31237;45.586;13.782;2023-06-10T11:43:52;6.43;;;5.25;;
45490;SDS011;31237;45.586;13.782;2023-06-10T11:46:21;7.63;;;5.65;;
45490;SDS011;31237;45.586;13.782;2023-06-10T11:48:59;6.70;;;5.47;;
45490;SDS011;31237;45.586;13.782;2023-06-10T11:51:26;6.85;;;5.13;;
45490;SDS011;31237;45.586;13.782;2023-06-10T11:53:54;5.90;;;4.70;;
45490;SDS011;31237;45.586;13.782;2023-06-10T11:56:24;6.32;;;5.03;;
45490;SDS011;31237;45.586;13.782;2023-06-10T11:58:55;6.45;;;5.38;;
45490;SDS011;31237;45.586;13.782;2023-06-10T12:01:29;7.00;;;5.32;;
45490;SDS011;31237;45.586;13.782;2023-06-10T12:03:57;5.85;;;4.40;;
45490;SDS011;31237;45.586;13.782;2023-06-10T12:06:24;7.60;;;5.95;;
45490;SDS011;31237;45.586;13.782;2023-06-10T12:08:49;6.05;;;5.45;;
45490;SDS011;31237;45.586;13.782;2023-06-10T12:11:15;6.45;;;4.72;;
45490;SDS011;31237;45.586;13.782;2023-06-10T12:13:48;7.50;;;5.65;;
45490;SDS011;31237;45.586;13.782;2023-06-10T12:16:14;7.35;;;5.60;;
45490;SDS011;31237;45.586;13.782;2023-06-10T12:18:42;6.55;;;4.32;;
45490;SDS011;31237;45.586;13.782;2023-06-10T12:21:19;9.27;;;4.90;;
45490;SDS011;31237;45.586;13.782;2023-06-10T12:24:08;8.95;;;6.25;;
45490;SDS011;31237;45.586;13.782;2023-06-10T12:29:01;4.93;;;3.78;;
45490;SDS011;31237;45.586;13.782;2023-06-10T12:34:43;4.55;;;3.58;;
45490;SDS011;31237;45.586;13.782;2023-06-10T12:37:12;5.22;;;3.42;;
45490;SDS011;31237;45.586;13.782;2023-06-10T12:39:39;11.98;;;7.15;;
45490;SDS011;31237;45.586;13.782;2023-06-10T12:42:05;4.03;;;3.25;;
45490;SDS011;31237;45.586;13.782;2023-06-10T12:44:35;5.03;;;3.03;;
45490;SDS011;31237;45.586;13.782;2023-06-10T12:47:08;4.05;;;3.15;;
45490;SDS011;31237;45.586;13.782;2023-06-10T12:49:35;3.60;;;2.70;;
45490;SDS011;31237;45.586;13.782;2023-06-10T12:52:01;3.60;;;2.80;;
45490;SDS011;31237;45.586;13.782;2023-06-10T12:54:27;4.32;;;2.80;;
45490;SDS011;31237;45.586;13.782;2023-06-10T12:56:53;3.85;;;3.45;;
45490;SDS011;31237;45.586;13.782;2023-06-10T12:59:19;4.35;;;3.60;;
45490;SDS011;31237;45.586;13.782;2023-06-10T13:01:49;4.47;;;3.30;;
45490;SDS011;31237;45.586;13.782;2023-06-10T13:04:16;4.93;;;3.13;;
45490;SDS011;31237;45.586;13.782;2023-06-10T13:06:43;3.60;;;2.90;;
45490;SDS011;31237;45.586;13.782;2023-06-10T13:09:09;4.95;;;3.20;;
45490;SDS011;31237;45.586;13.782;2023-06-10T13:11:37;3.90;;;3.20;;
45490;SDS011;31237;45.586;13.782;2023-06-10T13:14:04;4.25;;;3.17;;
45490;SDS011;31237;45.586;13.782;2023-06-10T13:16:31;5.07;;;3.78;;
45490;SDS011;31237;45.586;13.782;2023-06-10T13:18:57;8.02;;;4.45;;
45490;SDS011;31237;45.586;13.782;2023-06-10T13:21:24;5.13;;;4.18;;
45490;SDS011;31237;45.586;13.782;2023-06-10T13:23:50;4.95;;;4.40;;
45490;SDS011;31237;45.586;13.782;2023-06-10T13:26:16;5.47;;;3.40;;
45490;SDS011;31237;45.586;13.782;2023-06-10T13:28:43;4.38;;;3.40;;
45490;SDS011;31237;45.586;13.782;2023-06-10T13:31:09;4.40;;;3.47;;
45490;SDS011;31237;45.586;13.782;2023-06-10T13:33:35;5.18;;;3.80;;
45490;SDS011;31237;45.586;13.782;2023-06-10T13:36:00;5.65;;;3.78;;
45490;SDS011;31237;45.586;13.782;2023-06-10T13:38:26;4.05;;;3.20;;
45490;SDS011;31237;45.586;13.782;2023-06-10T13:40:52;5.63;;;3.75;;
45490;SDS011;31237;45.586;13.782;2023-06-10T13:43:18;4.72;;;3.45;;
45490;SDS011;31237;45.586;13.782;2023-06-10T13:45:43;4.70;;;3.30;;
45490;SDS011;31237;45.586;13.782;2023-06-10T13:48:10;4.65;;;3.50;;
45490;SDS011;31237;45.586;13.782;2023-06-10T13:50:37;4.90;;;3.42;;
45490;SDS011;31237;45.586;13.782;2023-06-10T13:53:03;4.88;;;3.72;;
45490;SDS011;31237;45.586;13.782;2023-06-10T13:55:28;5.18;;;3.65;;
45490;SDS011;31237;45.586;13.782;2023-06-10T13:57:54;4.85;;;3.33;;
45490;SDS011;31237;45.586;13.782;2023-06-10T14:00:20;4.25;;;3.50;;
45490;SDS011;31237;45.586;13.782;2023-06-10T14:02:46;4.40;;;3.53;;
45490;SDS011;31237;45.586;13.782;2023-06-10T14:05:11;4.95;;;3.38;;
45490;SDS011;31237;45.586;13.782;2023-06-10T14:07:37;4.30;;;3.20;;
45490;SDS011;31237;45.586;13.782;2023-06-10T14:10:04;4.45;;;3.33;;
45490;SDS011;31237;45.586;13.782;2023-06-10T14:12:30;4.35;;;3.67;;
45490;SDS011;31237;45.586;13.782;2023-06-10T14:14:56;5.45;;;4.03;;
45490;SDS011;31237;45.586;13.782;2023-06-10T14:17:22;5.63;;;3.80;;
45490;SDS011;31237;45.586;13.782;2023-06-10T14:19:48;5.63;;;3.83;;
45490;SDS011;31237;45.586;13.782;2023-06-10T14:22:15;4.55;;;3.58;;
45490;SDS011;31237;45.586;13.782;2023-06-10T14:24:41;5.47;;;4.13;;
45490;SDS011;31237;45.586;13.782;2023-06-10T14:27:07;6.55;;;4.50;;
45490;SDS011;31237;45.586;13.782;2023-06-10T14:29:32;5.47;;;4.47;;
45490;SDS011;31237;45.586;13.782;2023-06-10T14:31:59;5.28;;;4.00;;
45490;SDS011;31237;45.586;13.782;2023-06-10T14:34:25;5.40;;;3.63;;
45490;SDS011;31237;45.586;13.782;2023-06-10T14:36:54;4.93;;;3.35;;
45490;SDS011;31237;45.586;13.782;2023-06-10T14:39:20;3.78;;;2.72;;
45490;SDS011;31237;45.586;13.782;2023-06-10T14:41:46;4.28;;;2.90;;
45490;SDS011;31237;45.586;13.782;2023-06-10T14:44:15;5.13;;;3.40;;
45490;SDS011;31237;45.586;13.782;2023-06-10T14:46:42;4.15;;;2.88;;
45490;SDS011;31237;45.586;13.782;2023-06-10T14:49:08;3.50;;;2.80;;
45490;SDS011;31237;45.586;13.782;2023-06-10T14:51:33;4.53;;;3.38;;
45490;SDS011;31237;45.586;13.782;2023-06-10T14:53:59;4.07;;;3.22;;
45490;SDS011;31237;45.586;13.782;2023-06-10T14:56:25;3.72;;;3.00;;
45490;SDS011;31237;45.586;13.782;2023-06-10T14:58:51;4.53;;;3.08;;
45490;SDS011;31237;45.586;13.782;2023-06-10T15:01:16;4.10;;;3.33;;
45490;SDS011;31237;45.586;13.782;2023-06-10T15:03:43;4.72;;;2.97;;